sensor_id;sensor_type;location;lat;lon;timestamp;temperature;humidity
21115;DHT22;10715;48.546;9.896;2022-10-22T00:02:28;11.60;99.90
21115;DHT22;10715;48.546;9.896;2022-10-22T00:04:56;11.50;99.90
21115;DHT22;10715;48.546;9.896;2022-10-22T00:07:22;11.50;99.90
21115;DHT22;10715;48.546;9.896;2022-10-22T00:09:48;11.40;99.90
21115;DHT22;10715;48.546;9.896;2022-10-22T00:12:14;11.30;99.90
21115;DHT22;10715;48.546;9.896;2022-10-22T00:14:41;11.30;99.90
21115;DHT22;10715;48.546;9.896;2022-10-22T00:17:07;11.30;99.90
21115;DHT22;10715;48.546;9.896;2022-10-22T00:19:33;11.30;99.90
21115;DHT22;10715;48.546;9.896;2022-10-22T00:21:58;11.20;99.90
21115;DHT22;10715;48.546;9.896;2022-10-22T00:24:25;11.20;99.90
21115;DHT22;10715;48.546;9.896;2022-10-22T00:26:51;11.10;99.90
21115;DHT22;10715;48.546;9.896;2022-10-22T00:29:16;11.10;99.90
21115;DHT22;10715;48.546;9.896;2022-10-22T00:31:46;11.10;99.90
21115;DHT22;10715;48.546;9.896;2022-10-22T00:34:18;11.10;99.90
21115;DHT22;10715;48.546;9.896;2022-10-22T00:36:46;11.00;99.90
21115;DHT22;10715;48.546;9.896;2022-10-22T00:39:14;11.00;99.90
21115;DHT22;10715;48.546;9.896;2022-10-22T00:41:41;11.00;99.90
21115;DHT22;10715;48.546;9.896;2022-10-22T00:44:57;10.90;99.90
21115;DHT22;10715;48.546;9.896;2022-10-22T00:46:53;10.90;99.90
21115;DHT22;10715;48.546;9.896;2022-10-22T00:49:19;10.90;99.90
21115;DHT22;10715;48.546;9.896;2022-10-22T00:51:45;10.80;99.90
21115;DHT22;10715;48.546;9.896;2022-10-22T00:54:10;10.80;99.90
21115;DHT22;10715;48.546;9.896;2022-10-22T00:56:37;10.80;99.90
21115;DHT22;10715;48.546;9.896;2022-10-22T00:59:03;10.80;99.90
21115;DHT22;10715;48.546;9.896;2022-10-22T01:01:30;10.70;99.90
21115;DHT22;10715;48.546;9.896;2022-10-22T01:03:56;10.70;99.90
21115;DHT22;10715;48.546;9.896;2022-10-22T01:06:31;10.70;99.90
21115;DHT22;10715;48.546;9.896;2022-10-22T01:09:18;10.70;99.90
21115;DHT22;10715;48.546;9.896;2022-10-22T01:12:06;10.70;99.90
21115;DHT22;10715;48.546;9.896;2022-10-22T01:17:43;10.60;99.90
21115;DHT22;10715;48.546;9.896;2022-10-22T01:23:59;10.60;99.90
21115;DHT22;10715;48.546;9.896;2022-10-22T01:32:09;10.60;99.90
21115;DHT22;10715;48.546;9.896;2022-10-22T01:34:33;10.50;99.90
21115;DHT22;10715;48.546;9.896;2022-10-22T01:37:00;10.50;99.90
21115;DHT22;10715;48.546;9.896;2022-10-22T01:39:28;10.50;99.90
21115;DHT22;10715;48.546;9.896;2022-10-22T01:41:56;10.50;99.90
21115;DHT22;10715;48.546;9.896;2022-10-22T01:44:35;10.50;99.90
21115;DHT22;10715;48.546;9.896;2022-10-22T01:58:27;10.40;99.90
21115;DHT22;10715;48.546;9.896;2022-10-22T02:01:04;10.40;99.90
21115;DHT22;10715;48.546;9.896;2022-10-22T02:03:40;10.40;99.90
21115;DHT22;10715;48.546;9.896;2022-10-22T02:06:15;10.30;99.90
21115;DHT22;10715;48.546;9.896;2022-10-22T02:08:43;10.40;99.90
21115;DHT22;10715;48.546;9.896;2022-10-22T02:11:12;10.40;99.90
21115;DHT22;10715;48.546;9.896;2022-10-22T02:13:51;10.30;99.90
21115;DHT22;10715;48.546;9.896;2022-10-22T02:16:39;10.30;99.90
21115;DHT22;10715;48.546;9.896;2022-10-22T02:19:12;10.30;99.90
21115;DHT22;10715;48.546;9.896;2022-10-22T02:21:40;10.30;99.90
21115;DHT22;10715;48.546;9.896;2022-10-22T02:24:06;10.30;99.90
21115;DHT22;10715;48.546;9.896;2022-10-22T02:29:57;10.30;99.90
21115;DHT22;10715;48.546;9.896;2022-10-22T02:32:27;10.20;99.90
21115;DHT22;10715;48.546;9.896;2022-10-22T02:34:56;10.10;99.90
21115;DHT22;10715;48.546;9.896;2022-10-22T02:37:23;10.10;99.90
21115;DHT22;10715;48.546;9.896;2022-10-22T02:39:50;10.10;99.90
21115;DHT22;10715;48.546;9.896;2022-10-22T02:42:17;10.10;99.90
21115;DHT22;10715;48.546;9.896;2022-10-22T02:44:43;10.10;99.90
21115;DHT22;10715;48.546;9.896;2022-10-22T02:47:08;10.10;99.90
21115;DHT22;10715;48.546;9.896;2022-10-22T02:49:34;10.00;99.90
21115;DHT22;10715;48.546;9.896;2022-10-22T02:52:00;10.00;99.90
21115;DHT22;10715;48.546;9.896;2022-10-22T02:54:26;10.10;99.90
21115;DHT22;10715;48.546;9.896;2022-10-22T02:56:52;10.00;99.90
21115;DHT22;10715;48.546;9.896;2022-10-22T02:59:17;10.10;99.90
21115;DHT22;10715;48.546;9.896;2022-10-22T03:01:43;10.10;99.90
21115;DHT22;10715;48.546;9.896;2022-10-22T03:04:09;10.10;99.90
21115;DHT22;10715;48.546;9.896;2022-10-22T03:06:34;10.00;99.90
21115;DHT22;10715;48.546;9.896;2022-10-22T03:09:00;10.10;99.90
21115;DHT22;10715;48.546;9.896;2022-10-22T03:11:26;10.10;99.90
21115;DHT22;10715;48.546;9.896;2022-10-22T03:13:51;10.00;99.90
21115;DHT22;10715;48.546;9.896;2022-10-22T03:16:17;10.10;99.90
21115;DHT22;10715;48.546;9.896;2022-10-22T03:18:43;10.00;99.90
21115;DHT22;10715;48.546;9.896;2022-10-22T03:21:10;10.10;99.90
21115;DHT22;10715;48.546;9.896;2022-10-22T03:23:39;10.00;99.90
21115;DHT22;10715;48.546;9.896;2022-10-22T03:26:05;10.00;99.90
21115;DHT22;10715;48.546;9.896;2022-10-22T03:28:33;10.10;99.90
21115;DHT22;10715;48.546;9.896;2022-10-22T03:30:59;10.00;99.90
21115;DHT22;10715;48.546;9.896;2022-10-22T03:33:25;10.00;99.90
21115;DHT22;10715;48.546;9.896;2022-10-22T03:35:50;10.00;99.90
21115;DHT22;10715;48.546;9.896;2022-10-22T03:38:16;10.00;99.90
21115;DHT22;10715;48.546;9.896;2022-10-22T03:40:43;10.00;99.90
21115;DHT22;10715;48.546;9.896;2022-10-22T03:43:10;10.00;99.90
21115;DHT22;10715;48.546;9.896;2022-10-22T03:45:36;10.00;99.90
21115;DHT22;10715;48.546;9.896;2022-10-22T03:48:01;9.90;99.90
21115;DHT22;10715;48.546;9.896;2022-10-22T03:50:27;9.90;99.90
21115;DHT22;10715;48.546;9.896;2022-10-22T03:52:53;9.90;99.90
21115;DHT22;10715;48.546;9.896;2022-10-22T03:55:19;9.90;99.90
21115;DHT22;10715;48.546;9.896;2022-10-22T03:57:45;9.90;99.90
21115;DHT22;10715;48.546;9.896;2022-10-22T04:00:10;9.90;99.90
21115;DHT22;10715;48.546;9.896;2022-10-22T04:02:36;9.90;99.90
21115;DHT22;10715;48.546;9.896;2022-10-22T04:05:02;9.90;99.90
21115;DHT22;10715;48.546;9.896;2022-10-22T04:07:27;9.90;99.90
21115;DHT22;10715;48.546;9.896;2022-10-22T04:09:53;9.90;99.90
21115;DHT22;10715;48.546;9.896;2022-10-22T04:12:19;9.90;99.90
21115;DHT22;10715;48.546;9.896;2022-10-22T04:14:45;9.90;99.90
21115;DHT22;10715;48.546;9.896;2022-10-22T04:17:10;9.90;99.90
21115;DHT22;10715;48.546;9.896;2022-10-22T04:19:36;9.90;99.90
21115;DHT22;10715;48.546;9.896;2022-10-22T04:22:02;9.90;99.90
21115;DHT22;10715;48.546;9.896;2022-10-22T04:24:29;9.90;99.90
21115;DHT22;10715;48.546;9.896;2022-10-22T04:26:55;9.90;99.90
21115;DHT22;10715;48.546;9.896;2022-10-22T04:29:21;9.90;99.90
21115;DHT22;10715;48.546;9.896;2022-10-22T04:31:47;9.90;99.90
21115;DHT22;10715;48.546;9.896;2022-10-22T04:34:12;9.90;99.90
21115;DHT22;10715;48.546;9.896;2022-10-22T04:36:38;9.90;99.90
21115;DHT22;10715;48.546;9.896;2022-10-22T04:39:04;9.90;99.90
21115;DHT22;10715;48.546;9.896;2022-10-22T04:41:36;9.90;99.90
21115;DHT22;10715;48.546;9.896;2022-10-22T04:44:03;10.00;99.90
21115;DHT22;10715;48.546;9.896;2022-10-22T04:46:31;10.00;99.90
21115;DHT22;10715;48.546;9.896;2022-10-22T04:48:57;10.00;99.90
21115;DHT22;10715;48.546;9.896;2022-10-22T04:51:24;9.90;99.90
21115;DHT22;10715;48.546;9.896;2022-10-22T04:53:51;9.90;99.90
21115;DHT22;10715;48.546;9.896;2022-10-22T04:56:18;9.90;99.90
21115;DHT22;10715;48.546;9.896;2022-10-22T04:58:52;9.90;99.90
21115;DHT22;10715;48.546;9.896;2022-10-22T05:01:24;9.90;99.90
21115;DHT22;10715;48.546;9.896;2022-10-22T05:03:51;9.90;99.90
21115;DHT22;10715;48.546;9.896;2022-10-22T05:06:17;9.90;99.90
21115;DHT22;10715;48.546;9.896;2022-10-22T05:08:45;9.90;99.90
21115;DHT22;10715;48.546;9.896;2022-10-22T05:13:37;9.80;99.90
21115;DHT22;10715;48.546;9.896;2022-10-22T05:16:03;9.80;99.90
21115;DHT22;10715;48.546;9.896;2022-10-22T05:18:29;9.80;99.90
21115;DHT22;10715;48.546;9.896;2022-10-22T05:20:54;9.80;99.90
21115;DHT22;10715;48.546;9.896;2022-10-22T05:23:20;9.80;99.90
21115;DHT22;10715;48.546;9.896;2022-10-22T05:25:46;9.80;99.90
21115;DHT22;10715;48.546;9.896;2022-10-22T05:28:11;9.70;99.90
21115;DHT22;10715;48.546;9.896;2022-10-22T05:30:37;9.70;99.90
21115;DHT22;10715;48.546;9.896;2022-10-22T05:33:03;9.70;99.90
21115;DHT22;10715;48.546;9.896;2022-10-22T05:35:28;9.80;99.90
21115;DHT22;10715;48.546;9.896;2022-10-22T05:37:54;9.70;99.90
21115;DHT22;10715;48.546;9.896;2022-10-22T05:40:20;9.80;99.90
21115;DHT22;10715;48.546;9.896;2022-10-22T05:42:45;9.70;99.90
21115;DHT22;10715;48.546;9.896;2022-10-22T05:45:11;9.80;99.90
21115;DHT22;10715;48.546;9.896;2022-10-22T05:47:37;9.80;99.90
21115;DHT22;10715;48.546;9.896;2022-10-22T05:50:03;9.80;99.90
21115;DHT22;10715;48.546;9.896;2022-10-22T05:52:28;9.80;99.90
21115;DHT22;10715;48.546;9.896;2022-10-22T05:54:54;9.90;99.90
21115;DHT22;10715;48.546;9.896;2022-10-22T05:57:20;9.90;99.90
21115;DHT22;10715;48.546;9.896;2022-10-22T05:59:45;9.90;99.90
21115;DHT22;10715;48.546;9.896;2022-10-22T06:02:11;9.90;99.90
21115;DHT22;10715;48.546;9.896;2022-10-22T06:04:37;9.90;99.90
21115;DHT22;10715;48.546;9.896;2022-10-22T06:07:03;10.00;99.90
21115;DHT22;10715;48.546;9.896;2022-10-22T06:09:33;10.00;99.90
21115;DHT22;10715;48.546;9.896;2022-10-22T06:12:01;10.00;99.90
21115;DHT22;10715;48.546;9.896;2022-10-22T06:14:27;10.00;99.90
21115;DHT22;10715;48.546;9.896;2022-10-22T06:16:54;10.00;99.90
21115;DHT22;10715;48.546;9.896;2022-10-22T06:19:21;10.10;99.90
21115;DHT22;10715;48.546;9.896;2022-10-22T06:21:48;10.10;99.90
21115;DHT22;10715;48.546;9.896;2022-10-22T06:24:14;10.10;99.90
21115;DHT22;10715;48.546;9.896;2022-10-22T06:26:40;10.10;99.90
21115;DHT22;10715;48.546;9.896;2022-10-22T06:29:06;10.10;99.90
21115;DHT22;10715;48.546;9.896;2022-10-22T06:31:33;10.20;99.90
21115;DHT22;10715;48.546;9.896;2022-10-22T06:34:06;10.20;99.90
21115;DHT22;10715;48.546;9.896;2022-10-22T06:36:32;10.20;99.90
21115;DHT22;10715;48.546;9.896;2022-10-22T06:38:58;10.20;99.90
21115;DHT22;10715;48.546;9.896;2022-10-22T06:41:24;10.20;99.90
21115;DHT22;10715;48.546;9.896;2022-10-22T06:43:50;10.20;99.90
21115;DHT22;10715;48.546;9.896;2022-10-22T06:46:19;10.30;99.90
21115;DHT22;10715;48.546;9.896;2022-10-22T06:48:54;10.30;99.90
21115;DHT22;10715;48.546;9.896;2022-10-22T06:51:20;10.30;99.90
21115;DHT22;10715;48.546;9.896;2022-10-22T06:53:45;10.40;99.90
21115;DHT22;10715;48.546;9.896;2022-10-22T06:56:14;10.40;99.90
21115;DHT22;10715;48.546;9.896;2022-10-22T06:58:40;10.50;99.90
21115;DHT22;10715;48.546;9.896;2022-10-22T07:01:11;10.50;99.90
21115;DHT22;10715;48.546;9.896;2022-10-22T07:03:38;10.50;99.90
21115;DHT22;10715;48.546;9.896;2022-10-22T07:06:09;10.60;99.90
21115;DHT22;10715;48.546;9.896;2022-10-22T07:08:36;10.60;99.90
21115;DHT22;10715;48.546;9.896;2022-10-22T07:11:37;10.60;99.90
21115;DHT22;10715;48.546;9.896;2022-10-22T07:14:03;10.70;99.90
21115;DHT22;10715;48.546;9.896;2022-10-22T07:16:29;10.70;99.90
21115;DHT22;10715;48.546;9.896;2022-10-22T07:18:55;10.80;99.90
21115;DHT22;10715;48.546;9.896;2022-10-22T07:21:20;10.80;99.90
21115;DHT22;10715;48.546;9.896;2022-10-22T07:23:47;10.90;99.90
21115;DHT22;10715;48.546;9.896;2022-10-22T07:26:15;11.00;99.90
21115;DHT22;10715;48.546;9.896;2022-10-22T07:28:41;11.00;99.90
21115;DHT22;10715;48.546;9.896;2022-10-22T07:31:09;11.10;99.90
21115;DHT22;10715;48.546;9.896;2022-10-22T07:33:35;11.10;99.90
21115;DHT22;10715;48.546;9.896;2022-10-22T07:36:04;11.20;99.90
21115;DHT22;10715;48.546;9.896;2022-10-22T07:38:30;11.30;99.90
21115;DHT22;10715;48.546;9.896;2022-10-22T07:40:57;11.30;99.90
21115;DHT22;10715;48.546;9.896;2022-10-22T07:43:23;11.40;99.90
21115;DHT22;10715;48.546;9.896;2022-10-22T07:45:49;11.60;99.90
21115;DHT22;10715;48.546;9.896;2022-10-22T07:48:15;11.70;99.90
21115;DHT22;10715;48.546;9.896;2022-10-22T07:50:41;11.80;99.90
21115;DHT22;10715;48.546;9.896;2022-10-22T07:53:07;12.00;99.90
21115;DHT22;10715;48.546;9.896;2022-10-22T07:55:33;12.10;99.90
21115;DHT22;10715;48.546;9.896;2022-10-22T07:57:59;12.10;99.90
21115;DHT22;10715;48.546;9.896;2022-10-22T08:00:25;12.20;99.90
21115;DHT22;10715;48.546;9.896;2022-10-22T08:02:51;12.20;99.90
21115;DHT22;10715;48.546;9.896;2022-10-22T08:07:45;12.00;99.90
21115;DHT22;10715;48.546;9.896;2022-10-22T08:10:11;12.00;99.90
21115;DHT22;10715;48.546;9.896;2022-10-22T08:12:38;12.10;99.90
21115;DHT22;10715;48.546;9.896;2022-10-22T08:15:04;12.20;99.90
21115;DHT22;10715;48.546;9.896;2022-10-22T08:17:30;12.50;99.90
21115;DHT22;10715;48.546;9.896;2022-10-22T08:19:55;12.60;99.90
21115;DHT22;10715;48.546;9.896;2022-10-22T08:22:21;12.80;99.90
21115;DHT22;10715;48.546;9.896;2022-10-22T08:24:47;13.10;99.90
21115;DHT22;10715;48.546;9.896;2022-10-22T08:27:13;13.30;99.90
21115;DHT22;10715;48.546;9.896;2022-10-22T08:29:39;13.50;99.90
21115;DHT22;10715;48.546;9.896;2022-10-22T08:32:05;13.70;99.90
21115;DHT22;10715;48.546;9.896;2022-10-22T08:34:30;13.90;99.90
21115;DHT22;10715;48.546;9.896;2022-10-22T08:36:56;14.10;99.90
21115;DHT22;10715;48.546;9.896;2022-10-22T08:39:22;14.00;99.90
21115;DHT22;10715;48.546;9.896;2022-10-22T08:53:01;13.90;99.90
21115;DHT22;10715;48.546;9.896;2022-10-22T08:55:28;14.10;99.90
21115;DHT22;10715;48.546;9.896;2022-10-22T09:01:31;14.50;99.90
21115;DHT22;10715;48.546;9.896;2022-10-22T09:06:40;14.60;99.90
21115;DHT22;10715;48.546;9.896;2022-10-22T09:09:17;14.60;99.90
21115;DHT22;10715;48.546;9.896;2022-10-22T09:11:46;14.50;99.90
21115;DHT22;10715;48.546;9.896;2022-10-22T09:14:18;14.60;99.90
21115;DHT22;10715;48.546;9.896;2022-10-22T09:22:45;17.00;99.90
21115;DHT22;10715;48.546;9.896;2022-10-22T09:25:26;19.70;99.90
21115;DHT22;10715;48.546;9.896;2022-10-22T09:27:53;22.60;99.90
21115;DHT22;10715;48.546;9.896;2022-10-22T09:30:27;24.50;99.90
21115;DHT22;10715;48.546;9.896;2022-10-22T09:33:05;26.70;99.90
21115;DHT22;10715;48.546;9.896;2022-10-22T09:35:34;28.20;99.90
21115;DHT22;10715;48.546;9.896;2022-10-22T09:38:07;29.10;99.50
21115;DHT22;10715;48.546;9.896;2022-10-22T09:40:49;29.30;96.00
21115;DHT22;10715;48.546;9.896;2022-10-22T09:43:16;28.90;94.70
21115;DHT22;10715;48.546;9.896;2022-10-22T09:45:42;28.20;94.70
21115;DHT22;10715;48.546;9.896;2022-10-22T09:50:48;27.80;95.80
21115;DHT22;10715;48.546;9.896;2022-10-22T09:53:21;29.40;92.60
21115;DHT22;10715;48.546;9.896;2022-10-22T09:55:52;29.60;89.80
21115;DHT22;10715;48.546;9.896;2022-10-22T09:58:19;28.40;90.80
21115;DHT22;10715;48.546;9.896;2022-10-22T10:00:50;26.70;92.40
21115;DHT22;10715;48.546;9.896;2022-10-22T10:03:22;25.20;94.80
21115;DHT22;10715;48.546;9.896;2022-10-22T10:05:52;24.00;96.00
21115;DHT22;10715;48.546;9.896;2022-10-22T10:08:18;23.00;98.80
21115;DHT22;10715;48.546;9.896;2022-10-22T10:22:29;20.50;99.90
21115;DHT22;10715;48.546;9.896;2022-10-22T10:25:34;20.40;99.90
21115;DHT22;10715;48.546;9.896;2022-10-22T10:28:26;20.30;99.90
21115;DHT22;10715;48.546;9.896;2022-10-22T10:31:05;20.10;99.90
21115;DHT22;10715;48.546;9.896;2022-10-22T10:36:36;19.60;99.90
21115;DHT22;10715;48.546;9.896;2022-10-22T10:44:35;21.10;99.90
21115;DHT22;10715;48.546;9.896;2022-10-22T10:52:55;27.20;94.50
21115;DHT22;10715;48.546;9.896;2022-10-22T11:00:35;27.00;91.50
21115;DHT22;10715;48.546;9.896;2022-10-22T11:03:29;25.20;92.90
21115;DHT22;10715;48.546;9.896;2022-10-22T11:06:01;23.30;95.50
21115;DHT22;10715;48.546;9.896;2022-10-22T11:08:33;21.70;99.60
21115;DHT22;10715;48.546;9.896;2022-10-22T11:11:20;20.50;99.90
21115;DHT22;10715;48.546;9.896;2022-10-22T11:13:55;19.80;99.90
21115;DHT22;10715;48.546;9.896;2022-10-22T11:19:04;19.50;99.90
21115;DHT22;10715;48.546;9.896;2022-10-22T11:21:41;20.60;99.90
21115;DHT22;10715;48.546;9.896;2022-10-22T11:24:21;20.60;99.90
21115;DHT22;10715;48.546;9.896;2022-10-22T11:27:03;19.90;99.90
21115;DHT22;10715;48.546;9.896;2022-10-22T11:29:43;19.20;99.90
21115;DHT22;10715;48.546;9.896;2022-10-22T11:32:17;18.60;99.90
21115;DHT22;10715;48.546;9.896;2022-10-22T11:34:47;18.40;99.90
21115;DHT22;10715;48.546;9.896;2022-10-22T11:37:14;18.30;99.90
21115;DHT22;10715;48.546;9.896;2022-10-22T11:39:53;18.20;99.90
21115;DHT22;10715;48.546;9.896;2022-10-22T11:42:35;18.30;99.90
21115;DHT22;10715;48.546;9.896;2022-10-22T11:50:54;18.70;99.90
21115;DHT22;10715;48.546;9.896;2022-10-22T11:53:54;18.90;99.90
21115;DHT22;10715;48.546;9.896;2022-10-22T11:56:31;18.90;99.90
21115;DHT22;10715;48.546;9.896;2022-10-22T11:59:33;18.90;99.90
21115;DHT22;10715;48.546;9.896;2022-10-22T12:02:19;19.00;99.90
21115;DHT22;10715;48.546;9.896;2022-10-22T12:04:47;19.00;99.90
21115;DHT22;10715;48.546;9.896;2022-10-22T12:07:40;18.90;99.90
21115;DHT22;10715;48.546;9.896;2022-10-22T12:10:18;18.80;99.90
21115;DHT22;10715;48.546;9.896;2022-10-22T12:12:55;18.80;99.90
21115;DHT22;10715;48.546;9.896;2022-10-22T12:15:26;18.90;99.90
21115;DHT22;10715;48.546;9.896;2022-10-22T12:18:00;18.80;99.90
21115;DHT22;10715;48.546;9.896;2022-10-22T12:20:27;18.70;99.90
21115;DHT22;10715;48.546;9.896;2022-10-22T12:22:54;18.70;99.90
21115;DHT22;10715;48.546;9.896;2022-10-22T12:25:28;18.80;99.90
21115;DHT22;10715;48.546;9.896;2022-10-22T12:27:57;18.70;99.90
21115;DHT22;10715;48.546;9.896;2022-10-22T12:30:27;18.60;99.90
21115;DHT22;10715;48.546;9.896;2022-10-22T12:32:56;18.60;99.90
21115;DHT22;10715;48.546;9.896;2022-10-22T12:35:24;18.50;99.90
21115;DHT22;10715;48.546;9.896;2022-10-22T12:37:53;18.50;99.90
21115;DHT22;10715;48.546;9.896;2022-10-22T12:40:22;18.40;99.90
21115;DHT22;10715;48.546;9.896;2022-10-22T12:43:15;18.30;99.90
21115;DHT22;10715;48.546;9.896;2022-10-22T12:45:43;18.10;99.90
21115;DHT22;10715;48.546;9.896;2022-10-22T12:48:17;18.00;99.90
21115;DHT22;10715;48.546;9.896;2022-10-22T12:50:47;18.00;99.90
21115;DHT22;10715;48.546;9.896;2022-10-22T12:53:20;17.90;99.90
21115;DHT22;10715;48.546;9.896;2022-10-22T12:55:50;17.80;99.90
21115;DHT22;10715;48.546;9.896;2022-10-22T12:58:21;17.70;99.90
21115;DHT22;10715;48.546;9.896;2022-10-22T13:00:53;17.70;99.90
21115;DHT22;10715;48.546;9.896;2022-10-22T13:03:40;17.70;99.90
21115;DHT22;10715;48.546;9.896;2022-10-22T13:06:23;17.70;99.90
21115;DHT22;10715;48.546;9.896;2022-10-22T13:11:47;17.60;99.90
21115;DHT22;10715;48.546;9.896;2022-10-22T13:14:30;17.60;99.90
21115;DHT22;10715;48.546;9.896;2022-10-22T13:25:26;17.80;99.90
21115;DHT22;10715;48.546;9.896;2022-10-22T13:28:02;17.80;99.90
21115;DHT22;10715;48.546;9.896;2022-10-22T13:30:36;17.80;99.90
21115;DHT22;10715;48.546;9.896;2022-10-22T13:33:19;17.80;99.90
21115;DHT22;10715;48.546;9.896;2022-10-22T13:35:47;17.70;99.90
21115;DHT22;10715;48.546;9.896;2022-10-22T13:38:25;17.70;99.90
21115;DHT22;10715;48.546;9.896;2022-10-22T13:40:51;17.80;99.90
21115;DHT22;10715;48.546;9.896;2022-10-22T13:43:18;17.80;99.90
21115;DHT22;10715;48.546;9.896;2022-10-22T13:45:45;17.80;99.90
21115;DHT22;10715;48.546;9.896;2022-10-22T13:48:16;17.80;99.90
21115;DHT22;10715;48.546;9.896;2022-10-22T13:50:44;17.70;99.90
21115;DHT22;10715;48.546;9.896;2022-10-22T13:53:17;17.70;99.90
21115;DHT22;10715;48.546;9.896;2022-10-22T13:55:44;17.70;99.90
21115;DHT22;10715;48.546;9.896;2022-10-22T13:58:12;17.70;99.90
21115;DHT22;10715;48.546;9.896;2022-10-22T14:00:40;17.60;99.90
21115;DHT22;10715;48.546;9.896;2022-10-22T14:03:14;17.60;99.90
21115;DHT22;10715;48.546;9.896;2022-10-22T14:05:40;17.60;99.90
21115;DHT22;10715;48.546;9.896;2022-10-22T14:08:15;17.60;99.90
21115;DHT22;10715;48.546;9.896;2022-10-22T14:10:42;17.60;99.90
21115;DHT22;10715;48.546;9.896;2022-10-22T14:13:09;17.60;99.90
21115;DHT22;10715;48.546;9.896;2022-10-22T14:15:36;17.50;99.90
21115;DHT22;10715;48.546;9.896;2022-10-22T14:18:04;17.50;99.90
21115;DHT22;10715;48.546;9.896;2022-10-22T14:20:32;17.50;99.90
21115;DHT22;10715;48.546;9.896;2022-10-22T14:23:20;17.50;99.90
21115;DHT22;10715;48.546;9.896;2022-10-22T14:25:47;17.50;99.90
21115;DHT22;10715;48.546;9.896;2022-10-22T14:28:15;17.50;99.90
21115;DHT22;10715;48.546;9.896;2022-10-22T14:30:42;17.40;99.90
21115;DHT22;10715;48.546;9.896;2022-10-22T14:33:15;17.40;99.90
21115;DHT22;10715;48.546;9.896;2022-10-22T14:35:41;17.30;99.90
21115;DHT22;10715;48.546;9.896;2022-10-22T14:38:07;17.20;99.90
21115;DHT22;10715;48.546;9.896;2022-10-22T14:40:33;17.00;99.90
21115;DHT22;10715;48.546;9.896;2022-10-22T14:42:58;16.80;99.90
21115;DHT22;10715;48.546;9.896;2022-10-22T14:45:26;16.50;99.90
21115;DHT22;10715;48.546;9.896;2022-10-22T14:47:52;16.30;99.90
21115;DHT22;10715;48.546;9.896;2022-10-22T14:50:22;16.10;99.90
21115;DHT22;10715;48.546;9.896;2022-10-22T14:52:49;16.10;99.90
21115;DHT22;10715;48.546;9.896;2022-10-22T14:55:17;16.00;99.90
21115;DHT22;10715;48.546;9.896;2022-10-22T14:57:44;16.00;99.90
21115;DHT22;10715;48.546;9.896;2022-10-22T15:00:19;15.90;99.90
21115;DHT22;10715;48.546;9.896;2022-10-22T15:02:46;15.90;99.90
21115;DHT22;10715;48.546;9.896;2022-10-22T15:05:13;15.90;99.90
21115;DHT22;10715;48.546;9.896;2022-10-22T15:07:39;15.90;99.90
21115;DHT22;10715;48.546;9.896;2022-10-22T15:10:06;15.80;99.90
21115;DHT22;10715;48.546;9.896;2022-10-22T15:12:32;15.70;99.90
21115;DHT22;10715;48.546;9.896;2022-10-22T15:14:58;15.60;99.90
21115;DHT22;10715;48.546;9.896;2022-10-22T15:17:24;15.50;99.90
21115;DHT22;10715;48.546;9.896;2022-10-22T15:19:49;15.40;99.90
21115;DHT22;10715;48.546;9.896;2022-10-22T15:22:16;15.10;99.90
21115;DHT22;10715;48.546;9.896;2022-10-22T15:24:43;14.90;99.90
21115;DHT22;10715;48.546;9.896;2022-10-22T15:27:10;14.70;99.90
21115;DHT22;10715;48.546;9.896;2022-10-22T15:29:38;14.50;99.90
21115;DHT22;10715;48.546;9.896;2022-10-22T15:32:05;14.30;99.90
21115;DHT22;10715;48.546;9.896;2022-10-22T15:34:35;14.10;99.90
21115;DHT22;10715;48.546;9.896;2022-10-22T15:37:03;14.00;99.90
21115;DHT22;10715;48.546;9.896;2022-10-22T15:39:30;13.80;99.90
21115;DHT22;10715;48.546;9.896;2022-10-22T15:41:56;13.70;99.90
21115;DHT22;10715;48.546;9.896;2022-10-22T15:44:24;13.60;99.90
21115;DHT22;10715;48.546;9.896;2022-10-22T15:46:51;13.50;99.90
21115;DHT22;10715;48.546;9.896;2022-10-22T15:49:19;13.40;99.90
21115;DHT22;10715;48.546;9.896;2022-10-22T15:51:45;13.30;99.90
21115;DHT22;10715;48.546;9.896;2022-10-22T15:54:20;13.20;99.90
21115;DHT22;10715;48.546;9.896;2022-10-22T15:56:46;13.10;99.90
21115;DHT22;10715;48.546;9.896;2022-10-22T15:59:13;13.00;99.90
21115;DHT22;10715;48.546;9.896;2022-10-22T16:01:39;12.90;99.90
21115;DHT22;10715;48.546;9.896;2022-10-22T16:04:06;12.80;99.90
21115;DHT22;10715;48.546;9.896;2022-10-22T16:06:33;12.80;99.90
21115;DHT22;10715;48.546;9.896;2022-10-22T16:09:02;12.70;99.90
21115;DHT22;10715;48.546;9.896;2022-10-22T16:11:28;12.60;99.90
21115;DHT22;10715;48.546;9.896;2022-10-22T16:13:55;12.50;99.90
21115;DHT22;10715;48.546;9.896;2022-10-22T16:16:26;12.50;99.90
21115;DHT22;10715;48.546;9.896;2022-10-22T16:18:52;12.30;99.90
21115;DHT22;10715;48.546;9.896;2022-10-22T16:21:19;12.20;99.90
21115;DHT22;10715;48.546;9.896;2022-10-22T16:23:46;12.10;99.90
21115;DHT22;10715;48.546;9.896;2022-10-22T16:26:11;11.90;99.90
21115;DHT22;10715;48.546;9.896;2022-10-22T16:28:40;11.80;99.90
21115;DHT22;10715;48.546;9.896;2022-10-22T16:31:09;11.60;99.90
21115;DHT22;10715;48.546;9.896;2022-10-22T16:33:36;11.50;99.90
21115;DHT22;10715;48.546;9.896;2022-10-22T16:36:04;11.40;99.90
21115;DHT22;10715;48.546;9.896;2022-10-22T16:38:30;11.30;99.90
21115;DHT22;10715;48.546;9.896;2022-10-22T16:43:33;11.00;99.90
21115;DHT22;10715;48.546;9.896;2022-10-22T16:45:59;10.90;99.90
21115;DHT22;10715;48.546;9.896;2022-10-22T16:48:24;10.80;99.90
21115;DHT22;10715;48.546;9.896;2022-10-22T16:50:50;10.70;99.90
21115;DHT22;10715;48.546;9.896;2022-10-22T16:53:17;10.70;99.90
21115;DHT22;10715;48.546;9.896;2022-10-22T16:55:42;10.60;99.90
21115;DHT22;10715;48.546;9.896;2022-10-22T16:58:08;10.60;99.90
21115;DHT22;10715;48.546;9.896;2022-10-22T17:00:34;10.50;99.90
21115;DHT22;10715;48.546;9.896;2022-10-22T17:02:59;10.50;99.90
21115;DHT22;10715;48.546;9.896;2022-10-22T17:05:25;10.50;99.90
21115;DHT22;10715;48.546;9.896;2022-10-22T17:07:51;10.50;99.90
21115;DHT22;10715;48.546;9.896;2022-10-22T17:10:18;10.50;99.90
21115;DHT22;10715;48.546;9.896;2022-10-22T17:12:47;10.40;99.90
21115;DHT22;10715;48.546;9.896;2022-10-22T17:15:13;10.40;99.90
21115;DHT22;10715;48.546;9.896;2022-10-22T17:17:39;10.30;99.90
21115;DHT22;10715;48.546;9.896;2022-10-22T17:20:05;10.30;99.90
21115;DHT22;10715;48.546;9.896;2022-10-22T17:22:31;10.30;99.90
21115;DHT22;10715;48.546;9.896;2022-10-22T17:27:34;10.30;99.90
21115;DHT22;10715;48.546;9.896;2022-10-22T17:30:00;10.30;99.90
21115;DHT22;10715;48.546;9.896;2022-10-22T17:32:26;10.20;99.90
21115;DHT22;10715;48.546;9.896;2022-10-22T17:34:51;10.20;99.90
21115;DHT22;10715;48.546;9.896;2022-10-22T17:37:17;10.10;99.90
21115;DHT22;10715;48.546;9.896;2022-10-22T17:39:43;10.10;99.90